x

Fripp Nearshore (frp 2) (41033) Weather Station

12:08pm - Thu 23rd Mar 2017 All times are EDT. -4 hours from GMT.

  • Wind
    27mph, 34mph gusts
  • Sea Temp 60°f
  • Air Temp 57°f
  • Sea Pressure 1032.4mb
  • Fripp Nearshore (frp 2)
  • Fripp Nearshore (frp 2)

More Historic Weather Station data

Upgrade to MSW Pro to gain access to the past 30 days of data for over 8000 Wavebouys and Weather Stations around the globe.

Join Pro

Comparision Forecast

View Surf forecast
   
Thu 03/23 12:08pm 27 34 mph 1032.4mb 60f 57f
11:08am 25 36 mph 1032.1mb 60f 58f
10:08am 27 36 mph 1030.9mb 60f 58f
9:08am 27 36 mph 1029.6mb 60f 58f
8:08am 27 38 mph 1028mb 60f 57f
7:08am 27 36 mph 1028.2mb 60f 57f
6:08am 27 34 mph 1026.9mb 60f 58f
5:08am 27 34 mph 1026.7mb 60f 57f
4:08am 27 36 mph 1026.7mb 60f 58f
3:08am 27 36 mph 1027mb 60f 59f
2:08am 27 34 mph 1025.8mb 61f 60f
1:08am 25 31 mph 1025.5mb 60f 61f
12:08am 20 29 mph 1025.1mb 60f 61f
Wed 03/22 11:08pm 22 29 mph 1024.9mb 60f 61f
10:08pm 18 20 mph 1024mb 60f 61f
9:08pm 13 18 mph 1022.9mb 60f 61f
8:08pm 13 18 mph 1021.7mb 60f 62f
7:08pm 13 18 mph 1020.7mb 60f 62f
6:08pm 16 20 mph 1019.6mb 60f 62f
5:08pm 16 20 mph 1019mb 60f 62f
4:08pm 11 16 mph 1018.6mb 60f 62f
3:08pm 9 11 mph 1018.2mb 60f 63f
2:08pm 9 11 mph 1018mb 61f 64f
1:08pm 2 4 mph 1017.9mb 60f 64f
12:08pm 7 11 mph 1017.9mb 60f 63f
11:08am 13 18 mph 1017.1mb 60f 64f
10:08am 7 9 mph 1016.3mb 60f 64f
9:08am 7 9 mph 1015.9mb 59f 62f
8:08am 7 11 mph 1015.3mb 59f 62f
7:08am 7 9 mph 1014.5mb 59f 62f
6:08am 7 9 mph 1013.8mb 59f 62f
5:08am 7 11 mph 1013.7mb 59f 62f
4:08am 11 13 mph 1014mb 59f 62f
3:08am 7 11 mph 1014.1mb 59f 62f
2:08am 7 13 mph 1013.9mb 59f 65f
1:08am 25 31 mph 1014.9mb 59f 66f
12:08am 16 20 mph 1014.2mb 59f 63f
Tue 03/21 11:08pm 18 20 mph 1014.3mb 59f 64f
10:08pm 18 22 mph 1014.2mb 59f 64f
9:08pm 16 22 mph 1013.7mb 59f 64f
8:08pm 16 20 mph 1013.2mb 59f 64f
7:08pm 16 20 mph 1013.2mb 59f 64f
6:08pm 16 20 mph 1013.2mb 59f 64f
5:08pm 16 20 mph 1013.5mb 60f 64f
4:08pm 16 18 mph 1014.1mb 60f 63f
3:08pm 16 20 mph 1014.8mb 59f 62f
2:08pm 16 20 mph 1015.8mb 59f 61f
1:08pm 16 20 mph 1016.9mb 59f 61f
12:08pm 11 16 mph 1017.5mb 59f 60f
11:08am 13 20 mph 1018mb 58f 60f
10:08am 16 18 mph 1018.3mb 58f 60f
9:08am 16 20 mph 1018.4mb 58f 59f
8:08am 11 16 mph 1018.5mb 58f 59f
7:08am 13 18 mph 1018.3mb 58f 60f
6:08am 16 20 mph 1017.6mb 58f 60f
5:08am 13 18 mph 1017.7mb 59f 60f
4:08am 13 18 mph 1018.1mb 59f 60f
3:08am 11 13 mph 1019.1mb 59f 60f
2:08am 9 13 mph 1019.6mb 59f 60f
1:08am 9 13 mph 1020mb 59f 60f
12:08am 7 11 mph 1020.3mb 58f 60f
Mon 03/20 11:08pm 9 13 mph 1020mb 58f 60f
10:08pm 9 13 mph 1020.1mb 58f 60f
9:08pm 11 16 mph 1019.9mb 58f 60f
8:08pm 11 16 mph 1019.8mb 58f 60f
7:08pm 13 18 mph 1020.2mb 59f 60f
6:08pm 13 18 mph 1020.4mb 59f 60f
5:08pm 13 18 mph 1020.8mb 59f 60f
4:08pm 13 16 mph 1021.6mb 59f 59f
3:08pm 11 16 mph 1022.4mb 60f 59f
2:08pm 11 16 mph 1023mb 58f 59f
1:08pm 7 9 mph 1024.2mb 58f 59f
12:08pm 4 7 mph 1024.6mb 58f 58f
11:08am 2 4 mph 1024.4mb 58f 56f
10:08am 2 4 mph 1023.9mb 58f 55f
9:08am 4 7 mph 1024.3mb 57f 53f
8:08am 7
mph
1023.9mb 57f 54f
7:08am 4 7 mph 1022.9mb 58f 57f
6:08am 7 9 mph 1022.3mb 58f 57f
5:08am 7 11 mph 1022.7mb 58f 57f
4:08am 9 11 mph 1022.7mb 58f 58f
3:08am 9 11 mph 1023.1mb 58f 58f
2:08am 9 13 mph 1023.3mb 58f 58f
1:08am 11 16 mph 1023.3mb 58f 58f
12:08am 11 13 mph 1023.8mb 58f 58f
Sun 03/19 11:08pm 9 11 mph 1023.8mb 58f 58f
10:08pm 7 9 mph 1023.6mb 58f 58f
9:08pm 9 11 mph 1022.9mb 58f 59f
8:08pm 9 11 mph 1022.5mb 58f 59f
7:08pm 7 11 mph 1021.9mb 58f 60f
6:08pm 9 13 mph 1021.3mb 58f 61f
5:08pm 9 11 mph 1020.9mb 58f 60f